Time;durP1;ratioP1;P1;durP2;ratioP2;P2;SDS_P1;SDS_P2;PMS_P1;PMS_P2;Temp;Humidity;BMP_temperature;BMP_pressure;BME280_temperature;BME280_humidity;BME280_pressure;Samples;Min_cycle;Max_cycle;Signal;HPM_P1;HPM_P2
2023/04/15 00:00:42;;;;;;;10.40;8.50;;;7.30;99.90;;;;;;5071935;28;20410;-71
2023/04/15 00:03:08;;;;;;;14.83;9.30;;;7.30;99.90;;;;;;5072641;28;20420;-70
2023/04/15 00:05:34;;;;;;;17.30;8.60;;;7.30;99.90;;;;;;5072688;28;20270;-71
2023/04/15 00:08:00;;;;;;;12.23;9.10;;;7.30;99.90;;;;;;5072700;28;20190;-72
2023/04/15 00:10:26;;;;;;;16.10;8.57;;;7.40;99.90;;;;;;5051907;28;20485;-70
2023/04/15 00:12:52;;;;;;;13.60;8.40;;;7.40;99.90;;;;;;5072711;28;20440;-72
2023/04/15 00:15:18;;;;;;;14.70;9.80;;;7.40;99.90;;;;;;5072144;28;20952;-70
2023/04/15 00:17:44;;;;;;;12.43;8.50;;;7.40;1.00;;;;;;5072539;28;20452;-72
2023/04/15 00:20:10;;;;;;;13.23;8.47;;;7.40;1.00;;;;;;5071791;28;20499;-72
2023/04/15 00:22:36;;;;;;;13.17;9.10;;;7.40;1.00;;;;;;5072372;28;20991;-70
2023/04/15 00:25:02;;;;;;;11.53;9.00;;;7.40;1.00;;;;;;5054581;28;20428;-71
2023/04/15 00:27:28;;;;;;;9.80;7.43;;;7.40;1.00;;;;;;5072313;28;20227;-71
2023/04/15 00:29:55;;;;;;;11.97;8.90;;;7.40;1.00;;;;;;5071789;28;20257;-71
2023/04/15 00:32:20;;;;;;;15.87;10.10;;;7.40;1.00;;;;;;5071785;28;20956;-71
2023/04/15 00:34:46;;;;;;;11.67;8.47;;;7.40;1.00;;;;;;5072461;28;20396;-70
2023/04/15 00:37:12;;;;;;;16.00;9.70;;;7.40;1.00;;;;;;5072312;28;20455;-72
2023/04/15 00:39:38;;;;;;;15.80;10.10;;;7.40;1.00;;;;;;5071916;28;20185;-71
2023/04/15 00:42:04;;;;;;;12.07;9.47;;;7.50;1.00;;;;;;5071561;28;20217;-70
2023/04/15 00:44:31;;;;;;;12.80;9.03;;;7.50;1.00;;;;;;5072385;28;20401;-71
2023/04/15 00:46:58;;;;;;;14.20;9.50;;;7.50;1.00;;;;;;5071656;28;20412;-73
2023/04/15 00:49:24;;;;;;;20.77;9.83;;;7.50;1.00;;;;;;5054316;28;20912;-72
2023/04/15 00:51:50;;;;;;;13.07;9.10;;;7.50;1.00;;;;;;5071396;28;20452;-70
2023/04/15 00:54:16;;;;;;;16.07;9.67;;;7.50;1.00;;;;;;5071725;28;20541;-70
2023/04/15 00:56:41;;;;;;;14.43;10.20;;;7.50;1.00;;;;;;5071735;28;20614;-72
2023/04/15 00:59:08;;;;;;;13.77;9.73;;;7.50;1.00;;;;;;5072957;28;20618;-72
2023/04/15 01:01:35;;;;;;;18.60;9.23;;;7.50;1.00;;;;;;5074896;28;20162;-73
2023/04/15 01:04:01;;;;;;;12.60;8.93;;;7.50;1.00;;;;;;5075741;28;20405;-70
2023/04/15 01:06:28;;;;;;;12.50;9.40;;;7.50;1.00;;;;;;5074906;28;20404;-72
2023/04/15 01:08:54;;;;;;;13.53;7.90;;;7.50;1.00;;;;;;5075037;28;20951;-71
2023/04/15 01:11:22;;;;;;;16.87;8.67;;;7.50;1.00;;;;;;5074776;28;20745;-70
2023/04/15 01:13:49;;;;;;;12.73;8.77;;;7.50;1.00;;;;;;5075496;28;20417;-72
2023/04/15 01:16:15;;;;;;;15.30;10.63;;;7.50;1.00;;;;;;5057874;28;20416;-72
2023/04/15 01:18:41;;;;;;;14.57;9.97;;;7.50;1.00;;;;;;5075668;28;20400;-72
2023/04/15 01:21:07;;;;;;;15.07;9.80;;;7.60;1.00;;;;;;5073979;28;20403;-72
2023/04/15 01:23:37;;;;;;;13.60;9.23;;;7.60;1.00;;;;;;5074139;28;20666;-71
2023/04/15 01:26:04;;;;;;;13.10;9.87;;;7.60;1.00;;;;;;5075455;28;20462;-70
2023/04/15 01:28:31;;;;;;;32.30;11.30;;;7.60;1.00;;;;;;5075369;28;20396;-72
2023/04/15 01:31:07;;;;;;;13.00;9.87;;;7.60;1.00;;;;;;5074281;28;20404;-72
2023/04/15 01:33:33;;;;;;;14.97;9.90;;;7.60;1.00;;;;;;5075257;28;20831;-72
2023/04/15 01:35:59;;;;;;;15.87;9.40;;;7.60;1.00;;;;;;5074632;28;20432;-72
2023/04/15 01:38:26;;;;;;;18.20;11.27;;;7.60;1.00;;;;;;5075157;28;20220;-70
2023/04/15 01:40:52;;;;;;;16.70;10.53;;;7.60;1.00;;;;;;5074214;28;20480;-71
2023/04/15 01:43:18;;;;;;;14.60;10.70;;;7.60;1.00;;;;;;5074530;28;20508;-70
2023/04/15 01:45:44;;;;;;;16.87;11.40;;;7.50;1.00;;;;;;5074333;28;20407;-72
2023/04/15 01:48:11;;;;;;;20.53;11.50;;;7.50;1.00;;;;;;5075579;28;20178;-72
2023/04/15 01:50:37;;;;;;;23.60;13.07;;;7.60;1.00;;;;;;5074043;28;20405;-70
2023/04/15 01:53:03;;;;;;;20.90;12.37;;;7.60;1.00;;;;;;5074722;28;20417;-70
2023/04/15 01:55:29;;;;;;;20.83;11.90;;;7.60;1.00;;;;;;5056982;28;20503;-73
2023/04/15 01:57:55;;;;;;;22.60;12.77;;;7.60;1.00;;;;;;5074631;28;20448;-73
2023/04/15 02:00:21;;;;;;;19.07;12.97;;;7.60;1.00;;;;;;5073140;28;20396;-70
2023/04/15 02:02:48;;;;;;;24.03;14.27;;;7.60;1.00;;;;;;5073645;28;20456;-73
2023/04/15 02:05:14;;;;;;;20.87;12.97;;;7.60;1.00;;;;;;5074361;28;20485;-70
2023/04/15 02:07:44;;;;;;;29.27;14.63;;;7.60;1.00;;;;;;5074410;28;20451;-73
2023/04/15 02:10:11;;;;;;;29.20;14.57;;;7.70;1.00;;;;;;5073080;28;20413;-72
2023/04/15 02:12:37;;;;;;;25.07;13.70;;;7.70;1.00;;;;;;5073940;28;20431;-73
2023/04/15 02:15:04;;;;;;;22.47;13.70;;;7.70;1.00;;;;;;5073907;28;20412;-70
2023/04/15 02:17:33;;;;;;;19.67;12.90;;;7.70;1.00;;;;;;5073855;28;20487;-72
2023/04/15 02:19:59;;;;;;;19.57;12.50;;;7.70;1.00;;;;;;5073323;28;20388;-73
2023/04/15 02:22:25;;;;;;;17.60;12.30;;;7.70;1.00;;;;;;5073485;28;20897;-70
2023/04/15 02:24:51;;;;;;;24.50;13.37;;;7.80;1.00;;;;;;5074268;28;20372;-71
2023/04/15 02:27:17;;;;;;;21.60;13.13;;;7.80;1.00;;;;;;5074071;28;20439;-70
2023/04/15 02:29:46;;;;;;;22.03;12.40;;;7.80;1.00;;;;;;5073492;28;20179;-72
2023/04/15 02:32:12;;;;;;;22.87;15.30;;;7.80;1.00;;;;;;5073173;28;20420;-71
2023/04/15 02:34:41;;;;;;;25.37;13.23;;;7.80;1.00;;;;;;5056136;28;20437;-70
2023/04/15 02:37:11;;;;;;;18.93;11.87;;;7.80;1.00;;;;;;5073315;28;20469;-73
2023/04/15 02:39:37;;;;;;;20.20;12.03;;;7.80;1.00;;;;;;5073516;28;20397;-72
2023/04/15 02:42:04;;;;;;;15.83;11.07;;;7.70;1.00;;;;;;5072899;28;20416;-73
2023/04/15 02:44:31;;;;;;;15.30;9.10;;;7.70;1.00;;;;;;5073322;28;20424;-70
2023/04/15 02:46:57;;;;;;;15.67;9.83;;;7.70;1.00;;;;;;5073126;28;20405;-72
2023/04/15 02:49:24;;;;;;;19.23;13.00;;;7.70;1.00;;;;;;5073817;28;20412;-73
2023/04/15 02:51:50;;;;;;;18.67;11.47;;;7.70;1.00;;;;;;5072475;28;20443;-73
2023/04/15 02:54:20;;;;;;;18.33;13.17;;;7.70;1.00;;;;;;5073659;28;20400;-70
2023/04/15 02:56:45;;;;;;;16.10;11.00;;;7.70;1.00;;;;;;5072720;28;20447;-69
2023/04/15 02:59:11;;;;;;;18.50;11.30;;;7.70;1.00;;;;;;5073591;28;20388;-73
2023/04/15 03:01:37;;;;;;;18.00;12.00;;;7.70;1.00;;;;;;5054142;28;20391;-70
2023/04/15 03:04:03;;;;;;;16.80;10.53;;;7.70;1.00;;;;;;5073464;28;20717;-70
2023/04/15 03:06:29;;;;;;;18.83;12.80;;;7.70;1.00;;;;;;5073353;28;20177;-73
2023/04/15 03:08:55;;;;;;;20.23;12.70;;;7.70;1.00;;;;;;5073394;28;20167;-70
2023/04/15 03:11:22;;;;;;;24.33;12.40;;;7.70;1.00;;;;;;5072497;28;20392;-69
2023/04/15 03:13:47;;;;;;;21.73;13.37;;;7.70;1.00;;;;;;5072092;28;20459;-72
2023/04/15 03:16:13;;;;;;;20.80;13.20;;;7.70;1.00;;;;;;5054888;28;20496;-70
2023/04/15 03:18:39;;;;;;;27.50;12.90;;;7.70;1.00;;;;;;5073358;28;20393;-70
2023/04/15 03:21:05;;;;;;;22.23;13.77;;;7.70;1.00;;;;;;5072384;28;20162;-70
2023/04/15 03:23:31;;;;;;;25.53;12.60;;;7.70;1.00;;;;;;5072785;28;20951;-70
2023/04/15 03:25:57;;;;;;;21.57;14.20;;;7.80;1.00;;;;;;5073081;28;20404;-70
2023/04/15 03:28:23;;;;;;;24.10;14.00;;;7.80;1.00;;;;;;5072494;28;21361;-70
2023/04/15 03:30:49;;;;;;;25.10;13.70;;;7.80;1.00;;;;;;5071719;28;20880;-73
2023/04/15 03:33:15;;;;;;;27.77;14.07;;;7.70;1.00;;;;;;5073008;28;20409;-71
2023/04/15 03:35:41;;;;;;;20.23;13.90;;;7.70;1.00;;;;;;5055056;28;20424;-70
2023/04/15 03:38:06;;;;;;;24.53;16.53;;;7.70;1.00;;;;;;5073033;28;20208;-72
2023/04/15 03:40:32;;;;;;;29.10;18.30;;;7.80;1.00;;;;;;5072193;28;20168;-70
2023/04/15 03:42:58;;;;;;;33.63;16.60;;;7.80;1.00;;;;;;5072416;28;20186;-72
2023/04/15 03:45:25;;;;;;;27.50;15.10;;;7.80;1.00;;;;;;5055156;28;20220;-73
2023/04/15 03:47:50;;;;;;;24.60;15.30;;;7.80;1.00;;;;;;5073031;28;20162;-73
2023/04/15 03:50:16;;;;;;;27.97;18.27;;;7.80;1.00;;;;;;5071039;28;20403;-73
2023/04/15 03:52:42;;;;;;;32.13;18.50;;;7.80;1.00;;;;;;5072999;28;20189;-73
2023/04/15 03:55:08;;;;;;;25.43;16.00;;;7.80;1.00;;;;;;5072885;28;20650;-70
2023/04/15 03:57:38;;;;;;;28.83;16.30;;;7.80;1.00;;;;;;5072064;28;20436;-70
2023/04/15 04:00:05;;;;;;;30.40;18.03;;;7.80;1.00;;;;;;5072532;28;20173;-73
2023/04/15 04:02:30;;;;;;;29.87;17.83;;;7.80;1.00;;;;;;5072473;28;20482;-70
2023/04/15 04:04:56;;;;;;;29.57;16.30;;;7.80;1.00;;;;;;5072762;28;20400;-73
2023/04/15 04:07:23;;;;;;;32.40;18.50;;;7.80;1.00;;;;;;5072775;28;20214;-70
2023/04/15 04:09:49;;;;;;;37.23;19.17;;;7.80;1.00;;;;;;5071569;28;20177;-73
2023/04/15 04:12:14;;;;;;;30.13;18.53;;;7.80;1.00;;;;;;5061248;28;20456;-73
2023/04/15 04:14:40;;;;;;;39.63;19.43;;;7.80;1.00;;;;;;5072686;28;20174;-70
2023/04/15 04:17:06;;;;;;;31.80;18.07;;;7.80;1.00;;;;;;5054607;28;20206;-70
2023/04/15 04:19:32;;;;;;;31.93;19.77;;;7.80;1.00;;;;;;5072664;28;20165;-70
2023/04/15 04:21:58;;;;;;;38.43;19.87;;;7.80;1.00;;;;;;5071609;28;20507;-72
2023/04/15 04:24:24;;;;;;;34.30;20.40;;;7.80;1.00;;;;;;5072546;28;20162;-72
2023/04/15 04:26:49;;;;;;;36.50;22.60;;;7.80;1.00;;;;;;5071218;28;20595;-72
2023/04/15 04:29:15;;;;;;;41.87;20.13;;;7.80;1.00;;;;;;5072585;28;20769;-70
2023/04/15 04:31:41;;;;;;;36.47;20.93;;;7.80;1.00;;;;;;5071614;28;20166;-70
2023/04/15 04:34:07;;;;;;;39.77;19.50;;;7.90;1.00;;;;;;5073567;28;20232;-70
2023/04/15 04:36:32;;;;;;;40.20;22.57;;;7.90;1.00;;;;;;5058261;28;20206;-72
2023/04/15 04:38:58;;;;;;;34.33;20.53;;;7.90;1.00;;;;;;5058090;28;20650;-70
2023/04/15 04:41:24;;;;;;;39.00;21.70;;;7.90;1.00;;;;;;5075193;28;20221;-71
2023/04/15 04:43:50;;;;;;;34.90;21.27;;;7.90;1.00;;;;;;5075477;28;20403;-70
2023/04/15 04:46:15;;;;;;;33.43;19.93;;;7.90;1.00;;;;;;5075926;28;20169;-72
2023/04/15 04:48:41;;;;;;;38.83;21.63;;;7.90;1.00;;;;;;5076074;28;20554;-72
2023/04/15 04:51:08;;;;;;;38.30;21.53;;;7.90;1.00;;;;;;5057152;28;20170;-70
2023/04/15 04:53:36;;;;;;;38.97;21.30;;;7.90;1.00;;;;;;5075455;28;20193;-72
2023/04/15 04:56:02;;;;;;;40.37;21.33;;;7.90;1.00;;;;;;5096007;28;20407;-70
2023/04/15 04:58:28;;;;;;;43.20;23.33;;;7.90;1.00;;;;;;5096017;28;20422;-70
2023/04/15 05:00:53;;;;;;;41.07;20.80;;;7.90;1.00;;;;;;5094574;28;20399;-71
2023/04/15 05:03:20;;;;;;;47.17;23.03;;;7.90;1.00;;;;;;5077855;28;20301;-70
2023/04/15 05:05:46;;;;;;;41.17;22.17;;;7.90;1.00;;;;;;5096017;28;20284;-73
2023/04/15 05:08:11;;;;;;;41.03;23.83;;;7.90;1.00;;;;;;5083891;28;20601;-71
2023/04/15 05:10:37;;;;;;;48.30;24.13;;;7.90;1.00;;;;;;5074254;28;20183;-72
2023/04/15 05:13:02;;;;;;;46.03;23.20;;;8.00;1.00;;;;;;5075512;28;20200;-73
2023/04/15 05:15:28;;;;;;;42.27;22.77;;;8.00;1.00;;;;;;5075779;28;20223;-70
2023/04/15 05:17:54;;;;;;;37.00;21.17;;;8.00;1.00;;;;;;5057581;28;20194;-70
2023/04/15 05:20:20;;;;;;;39.00;22.20;;;8.00;1.00;;;;;;5056656;28;20228;-72
2023/04/15 05:22:45;;;;;;;44.20;23.10;;;8.00;1.00;;;;;;5073971;28;20190;-71
2023/04/15 05:25:11;;;;;;;40.73;21.80;;;8.00;1.00;;;;;;5075293;28;20411;-70
2023/04/15 05:27:37;;;;;;;35.27;20.73;;;8.00;1.00;;;;;;5075452;28;20170;-71
2023/04/15 05:30:03;;;;;;;50.63;24.43;;;8.00;1.00;;;;;;5075331;28;20174;-72
2023/04/15 05:32:28;;;;;;;42.87;24.23;;;7.90;1.00;;;;;;5074729;28;20682;-70
2023/04/15 05:34:54;;;;;;;46.23;27.27;;;8.00;1.00;;;;;;5074653;28;20485;-72
2023/04/15 05:37:21;;;;;;;46.80;25.90;;;8.00;1.00;;;;;;5075146;28;20276;-73
2023/04/15 05:39:47;;;;;;;49.80;27.57;;;8.00;1.00;;;;;;5073832;28;20618;-72
2023/04/15 05:42:13;;;;;;;47.70;28.13;;;8.00;1.00;;;;;;5074333;28;20440;-72
2023/04/15 05:44:38;;;;;;;54.30;29.07;;;8.00;1.00;;;;;;5074795;28;20448;-73
2023/04/15 05:47:06;;;;;;;48.40;27.80;;;8.00;1.00;;;;;;5074622;28;20202;-70
2023/04/15 05:49:31;;;;;;;52.83;30.30;;;8.10;1.00;;;;;;5075016;28;20257;-72
2023/04/15 05:51:57;;;;;;;58.93;29.13;;;8.10;1.00;;;;;;5073076;28;20599;-73
2023/04/15 05:54:23;;;;;;;57.90;27.83;;;8.10;1.00;;;;;;5073795;28;20264;-70
2023/04/15 05:56:48;;;;;;;49.93;27.87;;;8.10;1.00;;;;;;5072981;28;20198;-70
2023/04/15 05:59:14;;;;;;;50.40;29.40;;;8.10;1.00;;;;;;5074693;28;20229;-71
2023/04/15 06:01:40;;;;;;;51.20;29.50;;;8.10;1.00;;;;;;5072598;28;20174;-70
2023/04/15 06:04:05;;;;;;;60.77;29.53;;;8.10;1.00;;;;;;5074603;28;20184;-70
2023/04/15 06:06:31;;;;;;;42.03;28.33;;;8.20;1.00;;;;;;5074426;28;20170;-73
2023/04/15 06:08:57;;;;;;;52.00;28.07;;;8.20;1.00;;;;;;5074386;28;20181;-70
2023/04/15 06:11:23;;;;;;;44.93;26.30;;;8.20;1.00;;;;;;5073287;28;20765;-71
2023/04/15 06:13:49;;;;;;;49.90;29.33;;;8.20;1.00;;;;;;5073625;28;20316;-71
2023/04/15 06:16:15;;;;;;;56.27;30.23;;;8.20;1.00;;;;;;5073409;28;20507;-72
2023/04/15 06:18:40;;;;;;;52.40;30.17;;;8.20;1.00;;;;;;5074303;28;20387;-72
2023/04/15 06:21:06;;;;;;;51.10;27.93;;;8.20;1.00;;;;;;5073409;28;20400;-73
2023/04/15 06:23:35;;;;;;;59.37;27.97;;;8.20;1.00;;;;;;5074095;28;20182;-70
2023/04/15 06:26:01;;;;;;;60.10;29.93;;;8.20;1.00;;;;;;5073790;28;20526;-69
2023/04/15 06:28:27;;;;;;;53.27;29.07;;;8.20;1.00;;;;;;5074163;28;20397;-69
2023/04/15 06:30:53;;;;;;;46.87;28.37;;;8.30;1.00;;;;;;5072487;28;20898;-72
2023/04/15 06:33:19;;;;;;;58.83;32.73;;;8.20;1.00;;;;;;5074028;28;20191;-72
2023/04/15 06:35:46;;;;;;;46.40;27.70;;;8.20;1.00;;;;;;5074031;28;20740;-73
2023/04/15 06:38:12;;;;;;;56.80;29.37;;;8.30;1.00;;;;;;5073384;28;20492;-71
2023/04/15 06:40:37;;;;;;;45.33;27.43;;;8.30;1.00;;;;;;5073053;28;20785;-69
2023/04/15 06:43:03;;;;;;;44.93;28.37;;;8.30;1.00;;;;;;5073794;28;20193;-73
2023/04/15 06:45:30;;;;;;;44.80;25.87;;;8.20;1.00;;;;;;5073930;28;20167;-69
2023/04/15 06:47:56;;;;;;;46.43;27.63;;;8.30;1.00;;;;;;5073837;28;20853;-69
2023/04/15 06:50:22;;;;;;;53.67;30.97;;;8.30;1.00;;;;;;5072085;28;20491;-72
2023/04/15 06:52:47;;;;;;;45.43;27.93;;;8.30;1.00;;;;;;5072903;28;20427;-72
2023/04/15 06:55:13;;;;;;;43.67;27.77;;;8.30;1.00;;;;;;5073597;28;20460;-69
2023/04/15 06:57:39;;;;;;;45.60;27.67;;;8.30;1.00;;;;;;5072814;28;20190;-73
2023/04/15 07:00:06;;;;;;;50.10;26.63;;;8.30;1.00;;;;;;5072805;28;20736;-73
2023/04/15 07:02:32;;;;;;;48.50;28.60;;;8.30;1.00;;;;;;5073423;28;20421;-73
2023/04/15 07:04:58;;;;;;;44.27;26.27;;;8.30;1.00;;;;;;5073530;28;20400;-73
2023/04/15 07:07:24;;;;;;;39.77;26.47;;;8.40;1.00;;;;;;5072616;28;20452;-70
2023/04/15 07:09:51;;;;;;;43.90;26.57;;;8.30;1.00;;;;;;5074572;28;20232;-73
2023/04/15 07:12:16;;;;;;;48.47;27.80;;;8.30;1.00;;;;;;5086739;28;20423;-73
2023/04/15 07:14:42;;;;;;;39.67;26.43;;;8.30;1.00;;;;;;5083456;28;20397;-73
2023/04/15 07:17:08;;;;;;;46.70;26.50;;;8.40;1.00;;;;;;5078514;28;20213;-70
2023/04/15 07:19:34;;;;;;;42.73;26.47;;;8.40;1.00;;;;;;5073190;28;20173;-72
2023/04/15 07:22:00;;;;;;;44.00;27.00;;;8.40;1.00;;;;;;5069669;28;20445;-69
2023/04/15 07:24:26;;;;;;;51.97;26.80;;;8.40;1.00;;;;;;5091390;28;20494;-70
2023/04/15 07:26:58;;;;;;;39.67;26.37;;;8.40;1.00;;;;;;5093206;28;20273;-72
2023/04/15 07:29:24;;;;;;;43.03;24.10;;;8.40;1.00;;;;;;5092399;28;20700;-70
2023/04/15 07:31:50;;;;;;;46.53;28.07;;;8.40;1.00;;;;;;5091725;28;20447;-70
2023/04/15 07:34:15;;;;;;;43.73;25.10;;;8.30;1.00;;;;;;5090387;28;20400;-71
2023/04/15 07:36:42;;;;;;;42.20;24.43;;;8.40;1.00;;;;;;5072163;28;20198;-70
2023/04/15 07:39:07;;;;;;;41.53;24.50;;;8.40;1.00;;;;;;5054842;28;20581;-69
2023/04/15 07:41:33;;;;;;;49.60;27.63;;;8.50;1.00;;;;;;5072158;28;20416;-73
2023/04/15 07:43:59;;;;;;;49.70;27.60;;;8.40;1.00;;;;;;5072900;28;20170;-70
2023/04/15 07:46:26;;;;;;;47.10;25.53;;;8.50;1.00;;;;;;5071840;28;20249;-69
2023/04/15 07:48:52;;;;;;;47.63;27.13;;;8.50;1.00;;;;;;5072421;28;20209;-72
2023/04/15 07:51:20;;;;;;;43.63;26.17;;;8.50;1.00;;;;;;5072092;28;20397;-73
2023/04/15 07:53:47;;;;;;;46.10;28.30;;;8.50;1.00;;;;;;5072885;28;20500;-69
2023/04/15 07:56:13;;;;;;;50.50;29.27;;;8.50;1.00;;;;;;5072774;28;20372;-70
2023/04/15 07:58:39;;;;;;;44.07;27.10;;;8.70;1.00;;;;;;5072929;28;20379;-73
2023/04/15 08:01:05;;;;;;;47.73;28.57;;;8.70;1.00;;;;;;5071931;28;20189;-73
2023/04/15 08:03:31;;;;;;;44.43;27.90;;;8.80;1.00;;;;;;5072051;28;20503;-73
2023/04/15 08:05:57;;;;;;;57.00;30.00;;;8.90;1.00;;;;;;5072717;28;20440;-73
2023/04/15 08:08:24;;;;;;;56.10;27.63;;;8.90;1.00;;;;;;5073951;28;20412;-70
2023/04/15 08:10:50;;;;;;;57.17;28.53;;;8.90;1.00;;;;;;5075998;28;20422;-69
2023/04/15 08:13:16;;;;;;;39.30;25.40;;;8.90;1.00;;;;;;5076167;28;20447;-73
2023/04/15 08:15:42;;;;;;;43.30;25.40;;;8.90;1.00;;;;;;5076728;28;20859;-73
2023/04/15 08:18:07;;;;;;;44.30;25.97;;;8.90;1.00;;;;;;5076684;28;20205;-70
2023/04/15 08:20:33;;;;;;;36.50;24.00;;;8.90;1.00;;;;;;5075651;28;20398;-69
2023/04/15 08:22:59;;;;;;;41.47;24.77;;;8.80;1.00;;;;;;5075638;28;20211;-70
2023/04/15 08:25:26;;;;;;;53.80;27.00;;;8.80;1.00;;;;;;5076573;28;20685;-73
2023/04/15 08:27:54;;;;;;;41.03;26.63;;;8.90;1.00;;;;;;5075974;28;20437;-73
2023/04/15 08:30:20;;;;;;;37.23;23.70;;;9.00;1.00;;;;;;5075005;28;20761;-70
2023/04/15 08:32:46;;;;;;;48.77;28.17;;;9.00;1.00;;;;;;5076315;28;20812;-70
2023/04/15 08:35:12;;;;;;;43.50;27.17;;;9.10;1.00;;;;;;5076368;28;20467;-73
2023/04/15 08:37:38;;;;;;;39.40;25.07;;;9.10;1.00;;;;;;5076226;28;20679;-72
2023/04/15 08:40:04;;;;;;;46.77;26.73;;;9.10;1.00;;;;;;5075263;28;20404;-72
2023/04/15 08:42:35;;;;;;;38.37;25.37;;;9.20;1.00;;;;;;5075084;28;20205;-73
2023/04/15 08:45:04;;;;;;;39.70;25.43;;;9.20;1.00;;;;;;5076136;28;20400;-72
2023/04/15 08:47:33;;;;;;;46.83;25.67;;;9.30;1.00;;;;;;5076235;28;20897;-70
2023/04/15 08:50:02;;;;;;;37.23;24.10;;;9.20;1.00;;;;;;5075909;28;20397;-70
2023/04/15 08:52:30;;;;;;;44.90;24.67;;;9.30;1.00;;;;;;5075266;28;20441;-70
2023/04/15 08:54:59;;;;;;;42.40;25.03;;;9.30;1.00;;;;;;5075862;28;20375;-70
2023/04/15 08:57:26;;;;;;;38.93;25.60;;;9.20;1.00;;;;;;5090980;28;20451;-73
2023/04/15 08:59:56;;;;;;;44.03;27.17;;;9.20;1.00;;;;;;5081136;28;20435;-70
2023/04/15 09:02:23;;;;;;;31.77;23.13;;;9.20;1.00;;;;;;5075183;28;20453;-72
2023/04/15 09:04:49;;;;;;;39.57;24.73;;;9.30;1.00;;;;;;5075727;28;20405;-73
2023/04/15 09:07:15;;;;;;;37.30;24.40;;;9.30;1.00;;;;;;5075555;28;20401;-73
2023/04/15 09:09:41;;;;;;;40.60;23.63;;;9.30;1.00;;;;;;5074996;28;20189;-73
2023/04/15 09:12:08;;;;;;;30.93;21.73;;;9.30;1.00;;;;;;5074758;28;20755;-73
2023/04/15 09:14:33;;;;;;;44.30;25.33;;;9.40;1.00;;;;;;5075583;28;20640;-73
2023/04/15 09:17:01;;;;;;;33.70;23.37;;;9.50;1.00;;;;;;5074475;28;20454;-72
2023/04/15 09:19:28;;;;;;;39.10;23.77;;;9.70;1.00;;;;;;5057223;28;20172;-70
2023/04/15 09:21:56;;;;;;;35.73;24.17;;;9.70;1.00;;;;;;5074326;28;20475;-70
2023/04/15 09:24:22;;;;;;;34.90;22.93;;;9.90;1.00;;;;;;5074942;28;20932;-70
2023/04/15 09:26:52;;;;;;;36.30;24.30;;;10.00;1.00;;;;;;5075427;28;20397;-70
2023/04/15 09:29:18;;;;;;;38.87;23.23;;;10.20;1.00;;;;;;5075388;28;20408;-69
2023/04/15 09:31:44;;;;;;;41.17;23.77;;;10.40;1.00;;;;;;5074278;28;20425;-70
2023/04/15 09:34:10;;;;;;;39.97;24.17;;;10.50;1.00;;;;;;5075165;28;20193;-70
2023/04/15 09:36:46;;;;;;;32.90;22.33;;;10.70;1.00;;;;;;5074501;28;20654;-70
2023/04/15 09:39:12;;;;;;;34.40;21.50;;;10.80;1.00;;;;;;5074515;28;20899;-70
2023/04/15 09:41:39;;;;;;;34.23;21.20;;;10.80;1.00;;;;;;5074159;28;20498;-72
2023/04/15 09:44:06;;;;;;;29.00;22.87;;;11.20;1.00;;;;;;5075129;28;20417;-72
2023/04/15 09:46:55;;;;;;;28.23;20.53;;;11.40;1.00;;;;;;5074945;28;20401;-69
2023/04/15 09:49:22;;;;;;;33.87;21.33;;;11.70;1.00;;;;;;5074907;28;20396;-73
2023/04/15 09:51:48;;;;;;;21.93;17.93;;;11.80;1.00;;;;;;5073323;28;20479;-69
2023/04/15 09:54:20;;;;;;;25.67;20.33;;;11.90;1.00;;;;;;5074938;28;20397;-72
2023/04/15 09:56:46;;;;;;;28.43;20.40;;;12.00;1.00;;;;;;5074153;28;20446;-72
2023/04/15 09:59:11;;;;;;;25.20;20.80;;;11.90;99.90;;;;;;5074643;28;20431;-72
2023/04/15 10:01:38;;;;;;;25.37;19.30;;;11.90;99.90;;;;;;5073792;28;20773;-72
2023/04/15 10:04:05;;;;;;;25.13;18.40;;;11.80;99.90;;;;;;5074763;28;20205;-68
2023/04/15 10:06:31;;;;;;;28.40;19.90;;;12.00;99.90;;;;;;5078246;28;20473;-72
2023/04/15 10:08:58;;;;;;;25.20;19.00;;;11.90;99.90;;;;;;5094923;28;20396;-72
2023/04/15 10:11:27;;;;;;;30.37;19.13;;;12.10;99.90;;;;;;5075726;28;20407;-69
2023/04/15 10:13:54;;;;;;;22.40;18.40;;;12.40;99.90;;;;;;5094513;28;20392;-72
2023/04/15 10:16:21;;;;;;;20.07;15.80;;;12.60;99.90;;;;;;5093933;28;20400;-72
2023/04/15 10:18:54;;;;;;;23.43;17.90;;;12.50;99.90;;;;;;5094632;28;20422;-69
2023/04/15 10:21:22;;;;;;;25.90;19.43;;;12.60;99.90;;;;;;5075088;28;20424;-71
2023/04/15 10:23:48;;;;;;;24.83;19.10;;;12.50;99.90;;;;;;5074055;28;20420;-69
2023/04/15 10:26:16;;;;;;;23.83;17.90;;;12.40;99.90;;;;;;5074297;28;20389;-72
2023/04/15 10:28:48;;;;;;;29.00;18.10;;;12.50;99.90;;;;;;5074218;28;20383;-72
2023/04/15 10:31:15;;;;;;;24.27;19.27;;;12.30;99.90;;;;;;5072546;28;20726;-70
2023/04/15 10:33:43;;;;;;;20.50;17.83;;;12.30;99.90;;;;;;5073511;28;20503;-69
2023/04/15 10:36:10;;;;;;;20.47;17.47;;;12.40;99.90;;;;;;5072646;28;20428;-68
2023/04/15 10:38:41;;;;;;;22.50;18.00;;;12.30;99.90;;;;;;5073946;28;21009;-71
2023/04/15 10:41:29;;;;;;;27.97;20.17;;;12.20;99.90;;;;;;5072944;28;20403;-68
2023/04/15 10:43:58;;;;;;;26.60;17.93;;;12.30;99.90;;;;;;5073814;28;20379;-68
2023/04/15 10:46:36;;;;;;;26.17;18.57;;;12.50;99.90;;;;;;5073830;28;20393;-72
2023/04/15 10:49:13;;;;;;;26.00;18.30;;;13.00;99.90;;;;;;5073174;28;20424;-69
2023/04/15 10:51:42;;;;;;;23.20;18.53;;;13.30;94.10;;;;;;5072644;28;20396;-69
2023/04/15 10:54:24;;;;;;;26.40;18.87;;;13.70;83.20;;;;;;5089351;28;20631;-72
2023/04/15 10:57:05;;;;;;;26.37;18.60;;;13.50;1.00;;;;;;5089734;28;20740;-72
2023/04/15 10:59:58;;;;;;;22.90;18.93;;;13.40;1.00;;;;;;5090585;28;20396;-69
2023/04/15 11:02:41;;;;;;;28.60;18.77;;;13.60;1.00;;;;;;5088279;28;20928;-72
2023/04/15 11:05:08;;;;;;;20.27;15.77;;;14.30;1.00;;;;;;5090412;28;20939;-72
2023/04/15 11:07:35;;;;;;;23.40;17.67;;;14.50;1.00;;;;;;5090378;28;20427;-71
2023/04/15 11:10:01;;;;;;;22.97;17.77;;;14.40;1.00;;;;;;5089358;28;20400;-69
2023/04/15 11:12:37;;;;;;;20.83;17.57;;;14.30;1.00;;;;;;5089426;28;20455;-72
2023/04/15 11:15:40;;;;;;;25.17;19.07;;;14.00;1.00;;;;;;5090274;28;20452;-69
2023/04/15 11:18:09;;;;;;;20.00;16.80;;;14.40;1.00;;;;;;5070083;28;20566;-68
2023/04/15 11:20:36;;;;;;;20.63;18.23;;;14.70;1.00;;;;;;5069098;28;20393;-69
2023/04/15 11:23:02;;;;;;;20.43;16.50;;;14.90;1.00;;;;;;5068769;28;20438;-69
2023/04/15 11:25:30;;;;;;;25.80;19.90;;;15.50;1.00;;;;;;5068704;28;20428;-70
2023/04/15 11:27:58;;;;;;;21.43;18.60;;;15.50;99.90;;;;;;5069688;28;20412;-69
2023/04/15 11:30:25;;;;;;;22.20;17.67;;;15.30;99.90;;;;;;5067284;28;20434;-69
2023/04/15 11:32:53;;;;;;;23.20;18.50;;;15.20;99.90;;;;;;5069608;28;20551;-69
2023/04/15 11:35:19;;;;;;;24.13;18.60;;;15.30;99.90;;;;;;5069640;28;20401;-72
2023/04/15 11:37:45;;;;;;;26.00;17.60;;;15.10;99.90;;;;;;5069521;28;20433;-69
2023/04/15 11:40:12;;;;;;;26.53;19.93;;;14.90;99.90;;;;;;5068583;28;20400;-69
2023/04/15 11:42:38;;;;;;;23.00;19.97;;;14.20;99.90;;;;;;5069385;28;20435;-72
2023/04/15 11:45:13;;;;;;;24.13;20.10;;;14.20;99.90;;;;;;5067424;28;20424;-69
2023/04/15 11:47:43;;;;;;;20.47;17.13;;;14.50;99.90;;;;;;5068680;28;20412;-71
2023/04/15 11:50:17;;;;;;;24.90;18.90;;;14.60;99.90;;;;;;5066878;28;20466;-72
2023/04/15 11:52:57;;;;;;;23.70;19.20;;;15.00;99.90;;;;;;5069290;28;20889;-72
2023/04/15 11:55:23;;;;;;;24.20;19.30;;;15.20;99.90;;;;;;5069427;28;20443;-69
2023/04/15 11:58:15;;;;;;;22.73;19.00;;;15.60;99.90;;;;;;5069129;28;20432;-69
2023/04/15 12:00:46;;;;;;;27.30;19.83;;;16.20;99.90;;;;;;5068271;28;20412;-72
2023/04/15 12:03:13;;;;;;;22.03;17.40;;;16.00;99.90;;;;;;5068944;28;20464;-69
2023/04/15 12:06:02;;;;;;;24.10;19.53;;;15.90;99.90;;;;;;5054690;28;20499;-72
2023/04/15 12:08:50;;;;;;;26.30;20.13;;;15.50;99.90;;;;;;5055654;28;20487;-72
2023/04/15 12:11:16;;;;;;;24.00;19.90;;;15.20;99.90;;;;;;5054830;28;20482;-71
2023/04/15 12:13:47;;;;;;;24.37;17.57;;;15.00;99.90;;;;;;5055000;28;20468;-70
2023/04/15 12:16:16;;;;;;;23.53;19.00;;;14.60;99.90;;;;;;5055626;28;20458;-70
2023/04/15 12:18:49;;;;;;;26.57;18.10;;;14.40;99.90;;;;;;5055630;28;20754;-75
2023/04/15 12:21:17;;;;;;;23.37;18.83;;;14.40;99.90;;;;;;5053123;28;20426;-73
2023/04/15 12:23:50;;;;;;;23.80;18.27;;;14.20;99.90;;;;;;5054021;28;20487;-74
2023/04/15 12:26:17;;;;;;;22.33;18.00;;;14.60;99.90;;;;;;5055342;28;20414;-72
2023/04/15 12:28:44;;;;;;;24.83;18.17;;;14.80;99.90;;;;;;5055010;28;20437;-73
2023/04/15 12:31:10;;;;;;;22.90;18.90;;;14.90;99.90;;;;;;5054434;28;20406;-73
2023/04/15 12:33:37;;;;;;;21.70;19.07;;;15.50;99.90;;;;;;5055118;28;20453;-71
2023/04/15 12:36:03;;;;;;;22.83;18.03;;;15.90;99.90;;;;;;5055274;28;20412;-70
2023/04/15 12:38:30;;;;;;;19.70;17.13;;;16.30;99.90;;;;;;5055054;28;20402;-71
2023/04/15 12:40:57;;;;;;;24.07;19.00;;;16.80;99.90;;;;;;5054023;28;20402;-71
2023/04/15 12:43:23;;;;;;;24.17;18.63;;;16.70;99.90;;;;;;5053977;28;20481;-70